sensor_id;sensor_type;location;lat;lon;timestamp;pressure;altitude;pressure_sealevel;temperature;humidity
47556;BME280;33291;46.222;26.460;2023-02-03T00:00:36;96252.56;;;0.99;73.29
47556;BME280;33291;46.222;26.460;2023-02-03T00:03:02;96242.69;;;0.91;73.88
47556;BME280;33291;46.222;26.460;2023-02-03T00:05:28;96247.69;;;0.94;74.38
47556;BME280;33291;46.222;26.460;2023-02-03T00:07:54;96257.25;;;0.91;75.16
47556;BME280;33291;46.222;26.460;2023-02-03T00:10:20;96254.22;;;0.84;75.39
47556;BME280;33291;46.222;26.460;2023-02-03T00:12:50;96244.41;;;0.76;75.52
47556;BME280;33291;46.222;26.460;2023-02-03T00:15:17;96254.47;;;0.79;76.71
47556;BME280;33291;46.222;26.460;2023-02-03T00:17:43;96246.28;;;0.73;78.71
47556;BME280;33291;46.222;26.460;2023-02-03T00:20:09;96236.28;;;0.68;78.71
47556;BME280;33291;46.222;26.460;2023-02-03T00:22:35;96238.84;;;0.68;78.22
47556;BME280;33291;46.222;26.460;2023-02-03T00:25:00;96244.72;;;0.70;77.09
47556;BME280;33291;46.222;26.460;2023-02-03T00:27:26;96250.59;;;0.72;78.17
47556;BME280;33291;46.222;26.460;2023-02-03T00:29:51;96251.50;;;0.71;78.66
47556;BME280;33291;46.222;26.460;2023-02-03T00:32:17;96255.81;;;0.70;78.15
47556;BME280;33291;46.222;26.460;2023-02-03T00:34:42;96249.28;;;0.65;78.27
47556;BME280;33291;46.222;26.460;2023-02-03T00:37:08;96242.81;;;0.58;80.08
47556;BME280;33291;46.222;26.460;2023-02-03T00:39:35;96242.81;;;0.58;79.84
47556;BME280;33291;46.222;26.460;2023-02-03T00:42:03;96227.47;;;0.42;79.42
47556;BME280;33291;46.222;26.460;2023-02-03T00:44:28;96268.44;;;0.58;79.38
47556;BME280;33291;46.222;26.460;2023-02-03T00:46:54;96263.66;;;0.51;79.61
47556;BME280;33291;46.222;26.460;2023-02-03T00:49:19;96279.88;;;0.52;79.81
47556;BME280;33291;46.222;26.460;2023-02-03T00:51:44;96266.63;;;0.44;79.97
47556;BME280;33291;46.222;26.460;2023-02-03T00:54:10;96272.94;;;0.38;80.36
47556;BME280;33291;46.222;26.460;2023-02-03T00:56:35;96267.28;;;0.31;80.38
47556;BME280;33291;46.222;26.460;2023-02-03T00:59:01;96269.19;;;0.28;80.78
47556;BME280;33291;46.222;26.460;2023-02-03T01:01:26;96274.97;;;0.31;81.04
47556;BME280;33291;46.222;26.460;2023-02-03T01:03:54;96273.41;;;0.29;81.49
47556;BME280;33291;46.222;26.460;2023-02-03T01:06:20;96291.72;;;0.21;81.65
47556;BME280;33291;46.222;26.460;2023-02-03T01:08:47;96274.44;;;0.09;82.01
47556;BME280;33291;46.222;26.460;2023-02-03T01:11:15;96284.78;;;0.07;82.35
47556;BME280;33291;46.222;26.460;2023-02-03T01:13:42;96281.63;;;0.02;82.89
47556;BME280;33291;46.222;26.460;2023-02-03T01:16:09;96285.47;;;0.11;82.25
47556;BME280;33291;46.222;26.460;2023-02-03T01:18:35;96289.56;;;0.13;82.56
47556;BME280;33291;46.222;26.460;2023-02-03T01:21:06;96291.25;;;0.14;82.13
47556;BME280;33291;46.222;26.460;2023-02-03T01:23:33;96288.50;;;0.17;82.01
47556;BME280;33291;46.222;26.460;2023-02-03T01:26:05;96285.94;;;0.17;81.49
47556;BME280;33291;46.222;26.460;2023-02-03T01:28:30;96289.09;;;0.23;81.84
47556;BME280;33291;46.222;26.460;2023-02-03T01:30:56;96288.94;;;0.26;81.47
47556;BME280;33291;46.222;26.460;2023-02-03T01:33:21;96289.63;;;0.29;81.32
47556;BME280;33291;46.222;26.460;2023-02-03T01:35:47;96264.13;;;0.10;80.30
47556;BME280;33291;46.222;26.460;2023-02-03T01:38:12;96270.59;;;0.17;81.47
47556;BME280;33291;46.222;26.460;2023-02-03T01:40:42;96282.91;;;0.27;81.50
47556;BME280;33291;46.222;26.460;2023-02-03T01:43:09;96270.59;;;0.17;81.39
47556;BME280;33291;46.222;26.460;2023-02-03T01:45:35;96296.91;;;0.37;80.41
47556;BME280;33291;46.222;26.460;2023-02-03T01:48:01;96300.03;;;0.42;79.94
47556;BME280;33291;46.222;26.460;2023-02-03T01:50:32;96296.25;;;0.49;78.63
47556;BME280;33291;46.222;26.460;2023-02-03T01:53:06;96270.38;;;0.38;79.52
47556;BME280;33291;46.222;26.460;2023-02-03T01:55:36;96301.94;;;0.55;78.38
47556;BME280;33291;46.222;26.460;2023-02-03T01:58:23;96307.50;;;0.63;78.03
47556;BME280;33291;46.222;26.460;2023-02-03T02:00:51;96309.81;;;0.67;78.86
47556;BME280;33291;46.222;26.460;2023-02-03T02:03:20;96308.31;;;0.63;79.51
47556;BME280;33291;46.222;26.460;2023-02-03T02:05:53;96284.31;;;0.48;78.67
47556;BME280;33291;46.222;26.460;2023-02-03T02:08:21;96309.16;;;0.64;80.76
47556;BME280;33291;46.222;26.460;2023-02-03T02:10:48;96323.69;;;0.63;80.02
47556;BME280;33291;46.222;26.460;2023-02-03T02:13:14;96285.41;;;0.44;78.71
47556;BME280;33291;46.222;26.460;2023-02-03T02:21:11;96311.38;;;0.70;80.21
47556;BME280;33291;46.222;26.460;2023-02-03T02:38:02;96329.66;;;0.64;80.98
47556;BME280;33291;46.222;26.460;2023-02-03T02:43:27;96330.31;;;0.67;80.40
47556;BME280;33291;46.222;26.460;2023-02-03T02:45:59;96329.50;;;0.67;80.56
47556;BME280;33291;46.222;26.460;2023-02-03T02:48:48;96328.66;;;0.66;80.27
47556;BME280;33291;46.222;26.460;2023-02-03T02:51:17;96342.16;;;0.70;80.17
47556;BME280;33291;46.222;26.460;2023-02-03T02:53:56;96331.47;;;0.62;80.22
47556;BME280;33291;46.222;26.460;2023-02-03T02:56:24;96335.59;;;0.64;81.04
47556;BME280;33291;46.222;26.460;2023-02-03T02:58:52;96350.00;;;0.67;80.14
47556;BME280;33291;46.222;26.460;2023-02-03T03:01:19;96350.00;;;0.67;79.73
47556;BME280;33291;46.222;26.460;2023-02-03T03:03:45;96343.22;;;0.66;80.38
47556;BME280;33291;46.222;26.460;2023-02-03T03:08:53;96345.19;;;0.61;79.64
47556;BME280;33291;46.222;26.460;2023-02-03T03:11:20;96344.19;;;0.63;78.74
47556;BME280;33291;46.222;26.460;2023-02-03T03:13:51;96340.00;;;0.62;79.11
47556;BME280;33291;46.222;26.460;2023-02-03T03:16:29;96349.50;;;0.60;79.16
47556;BME280;33291;46.222;26.460;2023-02-03T03:19:23;96361.16;;;0.66;79.47
47556;BME280;33291;46.222;26.460;2023-02-03T03:21:56;96358.75;;;0.63;79.74
47556;BME280;33291;46.222;26.460;2023-02-03T03:24:29;96359.75;;;0.60;79.96
47556;BME280;33291;46.222;26.460;2023-02-03T03:27:09;96375.81;;;0.64;80.06
47556;BME280;33291;46.222;26.460;2023-02-03T03:32:12;96375.94;;;0.61;80.19
47556;BME280;33291;46.222;26.460;2023-02-03T03:34:38;96381.06;;;0.61;80.61
47556;BME280;33291;46.222;26.460;2023-02-03T03:37:17;96384.41;;;0.63;80.00
47556;BME280;33291;46.222;26.460;2023-02-03T03:39:47;96386.97;;;0.63;80.01
47556;BME280;33291;46.222;26.460;2023-02-03T03:42:27;96391.31;;;0.61;81.95
47556;BME280;33291;46.222;26.460;2023-02-03T03:45:37;96395.78;;;0.57;81.83
47556;BME280;33291;46.222;26.460;2023-02-03T03:48:02;96396.78;;;0.55;82.32
47556;BME280;33291;46.222;26.460;2023-02-03T03:50:33;96378.97;;;0.35;82.81
47556;BME280;33291;46.222;26.460;2023-02-03T03:53:02;96400.56;;;0.47;83.23
47556;BME280;33291;46.222;26.460;2023-02-03T03:55:30;96395.63;;;0.44;83.11
47556;BME280;33291;46.222;26.460;2023-02-03T03:58:05;96406.69;;;0.45;83.29
47556;BME280;33291;46.222;26.460;2023-02-03T04:00:34;96392.59;;;0.36;83.37
47556;BME280;33291;46.222;26.460;2023-02-03T04:03:09;96402.53;;;0.42;83.31
47556;BME280;33291;46.222;26.460;2023-02-03T04:05:38;96407.66;;;0.42;83.55
47556;BME280;33291;46.222;26.460;2023-02-03T04:08:03;96416.13;;;0.44;83.59
47556;BME280;33291;46.222;26.460;2023-02-03T04:10:37;96408.66;;;0.40;83.73
47556;BME280;33291;46.222;26.460;2023-02-03T04:13:04;96420.47;;;0.42;83.78
47556;BME280;33291;46.222;26.460;2023-02-03T04:15:30;96407.00;;;0.39;83.45
47556;BME280;33291;46.222;26.460;2023-02-03T04:17:56;96411.16;;;0.41;83.84
47556;BME280;33291;46.222;26.460;2023-02-03T04:20:23;96409.47;;;0.40;84.10
47556;BME280;33291;46.222;26.460;2023-02-03T04:22:49;96413.88;;;0.38;83.70
47556;BME280;33291;46.222;26.460;2023-02-03T04:25:14;96418.22;;;0.36;84.27
47556;BME280;33291;46.222;26.460;2023-02-03T04:27:40;96418.69;;;0.27;84.47
47556;BME280;33291;46.222;26.460;2023-02-03T04:30:06;96427.97;;;0.29;84.38
47556;BME280;33291;46.222;26.460;2023-02-03T04:32:31;96421.19;;;0.28;84.36
47556;BME280;33291;46.222;26.460;2023-02-03T04:34:59;96427.97;;;0.29;83.56
47556;BME280;33291;46.222;26.460;2023-02-03T04:37:25;96422.06;;;0.27;83.92
47556;BME280;33291;46.222;26.460;2023-02-03T04:39:51;96417.25;;;0.21;85.47
47556;BME280;33291;46.222;26.460;2023-02-03T04:42:17;96415.78;;;0.17;85.26
47556;BME280;33291;46.222;26.460;2023-02-03T04:44:43;96417.34;;;0.20;85.34
47556;BME280;33291;46.222;26.460;2023-02-03T04:47:09;96416.53;;;0.19;84.31
47556;BME280;33291;46.222;26.460;2023-02-03T04:49:34;96425.94;;;0.19;83.67
47556;BME280;33291;46.222;26.460;2023-02-03T04:52:00;96427.59;;;0.20;83.84
47556;BME280;33291;46.222;26.460;2023-02-03T04:54:25;96420.06;;;0.16;85.24
47556;BME280;33291;46.222;26.460;2023-02-03T04:56:51;96422.63;;;0.16;84.83
47556;BME280;33291;46.222;26.460;2023-02-03T04:59:16;96425.94;;;0.19;84.44
47556;BME280;33291;46.222;26.460;2023-02-03T05:01:42;96431.97;;;0.17;83.58
47556;BME280;33291;46.222;26.460;2023-02-03T05:04:07;96422.84;;;0.12;84.83
47556;BME280;33291;46.222;26.460;2023-02-03T05:06:33;96433.00;;;0.13;84.67
47556;BME280;33291;46.222;26.460;2023-02-03T05:08:59;96423.63;;;0.14;83.93
47556;BME280;33291;46.222;26.460;2023-02-03T05:11:24;96427.72;;;0.16;83.32
47556;BME280;33291;46.222;26.460;2023-02-03T05:13:50;96426.75;;;0.19;83.23
47556;BME280;33291;46.222;26.460;2023-02-03T05:16:16;96428.59;;;0.17;83.10
47556;BME280;33291;46.222;26.460;2023-02-03T05:18:41;96439.06;;;0.12;83.17
47556;BME280;33291;46.222;26.460;2023-02-03T05:21:07;96444.19;;;0.12;83.23
47556;BME280;33291;46.222;26.460;2023-02-03T05:23:33;96426.88;;;0.00;83.41
47556;BME280;33291;46.222;26.460;2023-02-03T05:25:58;96452.47;;;0.00;83.57
47556;BME280;33291;46.222;26.460;2023-02-03T05:28:24;96444.47;;;-0.11;83.89
47556;BME280;33291;46.222;26.460;2023-02-03T05:30:49;96448.78;;;-0.12;83.97
47556;BME280;33291;46.222;26.460;2023-02-03T05:33:15;96462.25;;;-0.08;84.24
47556;BME280;33291;46.222;26.460;2023-02-03T05:35:40;96459.75;;;-0.10;84.35
47556;BME280;33291;46.222;26.460;2023-02-03T05:38:06;96466.53;;;-0.09;84.18
47556;BME280;33291;46.222;26.460;2023-02-03T05:40:31;96459.84;;;-0.11;84.68
47556;BME280;33291;46.222;26.460;2023-02-03T05:43:15;96472.19;;;-0.20;85.04
47556;BME280;33291;46.222;26.460;2023-02-03T05:45:41;96472.41;;;-0.24;84.92
47556;BME280;33291;46.222;26.460;2023-02-03T05:48:06;96458.38;;;-0.34;85.03
47556;BME280;33291;46.222;26.460;2023-02-03T05:50:32;96477.84;;;-0.32;84.98
47556;BME280;33291;46.222;26.460;2023-02-03T05:53:02;96470.06;;;-0.29;84.81
47556;BME280;33291;46.222;26.460;2023-02-03T05:55:29;96467.78;;;-0.35;84.54
47556;BME280;33291;46.222;26.460;2023-02-03T05:57:55;96471.47;;;-0.41;84.69
47556;BME280;33291;46.222;26.460;2023-02-03T06:00:21;96489.91;;;-0.34;84.47
47556;BME280;33291;46.222;26.460;2023-02-03T06:02:54;96493.50;;;-0.38;84.55
47556;BME280;33291;46.222;26.460;2023-02-03T06:05:21;96479.97;;;-0.40;84.91
47556;BME280;33291;46.222;26.460;2023-02-03T06:07:47;96479.97;;;-0.40;85.24
47556;BME280;33291;46.222;26.460;2023-02-03T06:10:13;96490.72;;;-0.33;84.62
47556;BME280;33291;46.222;26.460;2023-02-03T06:12:39;96486.31;;;-0.30;84.58
47556;BME280;33291;46.222;26.460;2023-02-03T06:15:04;96486.03;;;-0.24;84.35
47556;BME280;33291;46.222;26.460;2023-02-03T06:17:30;96488.50;;;-0.22;84.00
47556;BME280;33291;46.222;26.460;2023-02-03T06:19:56;96494.31;;;-0.19;83.67
47556;BME280;33291;46.222;26.460;2023-02-03T06:22:22;96497.72;;;-0.18;83.17
47556;BME280;33291;46.222;26.460;2023-02-03T06:24:47;96508.69;;;-0.16;82.93
47556;BME280;33291;46.222;26.460;2023-02-03T06:27:14;96513.75;;;-0.14;82.75
47556;BME280;33291;46.222;26.460;2023-02-03T06:29:40;96499.56;;;-0.22;82.60
47556;BME280;33291;46.222;26.460;2023-02-03T06:32:06;96509.59;;;-0.17;82.69
47556;BME280;33291;46.222;26.460;2023-02-03T06:34:32;96521.44;;;-0.14;82.65
47556;BME280;33291;46.222;26.460;2023-02-03T06:36:57;96529.19;;;-0.16;82.63
47556;BME280;33291;46.222;26.460;2023-02-03T06:39:23;96528.44;;;-0.18;82.92
47556;BME280;33291;46.222;26.460;2023-02-03T06:41:48;96532.78;;;-0.20;83.15
47556;BME280;33291;46.222;26.460;2023-02-03T06:44:16;96543.03;;;-0.20;83.04
47556;BME280;33291;46.222;26.460;2023-02-03T06:46:42;96543.03;;;-0.20;82.93
47556;BME280;33291;46.222;26.460;2023-02-03T06:49:07;96542.13;;;-0.19;83.23
47556;BME280;33291;46.222;26.460;2023-02-03T06:51:33;96547.19;;;-0.17;83.32
47556;BME280;33291;46.222;26.460;2023-02-03T06:53:58;96543.88;;;-0.20;83.07
47556;BME280;33291;46.222;26.460;2023-02-03T06:56:24;96558.31;;;-0.19;83.13
47556;BME280;33291;46.222;26.460;2023-02-03T06:58:49;96559.22;;;-0.20;83.20
47556;BME280;33291;46.222;26.460;2023-02-03T07:01:15;96552.44;;;-0.21;83.28
47556;BME280;33291;46.222;26.460;2023-02-03T07:03:40;96554.13;;;-0.20;83.22
47556;BME280;33291;46.222;26.460;2023-02-03T07:06:06;96551.56;;;-0.20;83.26
47556;BME280;33291;46.222;26.460;2023-02-03T07:08:32;96552.44;;;-0.21;83.41
47556;BME280;33291;46.222;26.460;2023-02-03T07:10:57;96564.34;;;-0.20;83.67
47556;BME280;33291;46.222;26.460;2023-02-03T07:13:22;96555.22;;;-0.25;83.75
47556;BME280;33291;46.222;26.460;2023-02-03T07:15:48;96572.91;;;-0.21;84.50
47556;BME280;33291;46.222;26.460;2023-02-03T07:18:13;96566.84;;;-0.18;84.04
47556;BME280;33291;46.222;26.460;2023-02-03T07:20:40;96580.38;;;-0.16;83.88
47556;BME280;33291;46.222;26.460;2023-02-03T07:23:05;96573.47;;;-0.14;83.62
47556;BME280;33291;46.222;26.460;2023-02-03T07:25:31;96569.13;;;-0.12;83.66
47556;BME280;33291;46.222;26.460;2023-02-03T07:27:57;96564.81;;;-0.11;83.41
47556;BME280;33291;46.222;26.460;2023-02-03T07:30:22;96562.09;;;-0.08;83.49
47556;BME280;33291;46.222;26.460;2023-02-03T07:32:49;96583.00;;;0.02;83.17
47556;BME280;33291;46.222;26.460;2023-02-03T07:35:15;96541.31;;;-0.20;83.03
47556;BME280;33291;46.222;26.460;2023-02-03T07:37:41;96582.78;;;0.06;83.20
47556;BME280;33291;46.222;26.460;2023-02-03T07:40:07;96578.56;;;0.05;83.35
47556;BME280;33291;46.222;26.460;2023-02-03T07:42:33;96568.91;;;0.10;83.26
47556;BME280;33291;46.222;26.460;2023-02-03T07:44:58;96578.66;;;0.21;83.16
47556;BME280;33291;46.222;26.460;2023-02-03T07:47:24;96568.19;;;0.26;82.88
47556;BME280;33291;46.222;26.460;2023-02-03T07:49:49;96559.75;;;0.24;82.96
47556;BME280;33291;46.222;26.460;2023-02-03T07:52:14;96572.88;;;0.35;82.52
47556;BME280;33291;46.222;26.460;2023-02-03T07:54:40;96573.50;;;0.40;82.35
47556;BME280;33291;46.222;26.460;2023-02-03T07:57:05;96572.53;;;0.43;82.24
47556;BME280;33291;46.222;26.460;2023-02-03T07:59:31;96563.81;;;0.45;82.30
47556;BME280;33291;46.222;26.460;2023-02-03T08:01:56;96581.47;;;0.51;82.07
47556;BME280;33291;46.222;26.460;2023-02-03T08:04:22;96571.13;;;0.53;81.49
47556;BME280;33291;46.222;26.460;2023-02-03T08:06:48;96579.44;;;0.58;81.45
47556;BME280;33291;46.222;26.460;2023-02-03T08:09:14;96572.44;;;0.62;81.18
47556;BME280;33291;46.222;26.460;2023-02-03T08:11:39;96572.97;;;0.68;81.41
47556;BME280;33291;46.222;26.460;2023-02-03T08:14:05;96572.50;;;0.78;78.16
47556;BME280;33291;46.222;26.460;2023-02-03T08:16:30;96571.75;;;0.93;73.48
47556;BME280;33291;46.222;26.460;2023-02-03T08:18:56;96569.28;;;1.08;74.01
47556;BME280;33291;46.222;26.460;2023-02-03T08:21:22;96572.47;;;1.29;71.37
47556;BME280;33291;46.222;26.460;2023-02-03T08:23:48;96585.28;;;1.46;68.63
47556;BME280;33291;46.222;26.460;2023-02-03T08:26:13;96590.16;;;1.67;60.53
47556;BME280;33291;46.222;26.460;2023-02-03T08:28:39;96575.19;;;1.75;60.79
47556;BME280;33291;46.222;26.460;2023-02-03T08:31:11;96585.13;;;1.97;60.23
47556;BME280;33291;46.222;26.460;2023-02-03T08:33:37;96582.47;;;2.15;59.47
47556;BME280;33291;46.222;26.460;2023-02-03T08:36:03;96582.78;;;2.24;56.07
47556;BME280;33291;46.222;26.460;2023-02-03T08:38:30;96590.56;;;2.39;54.96
47556;BME280;33291;46.222;26.460;2023-02-03T08:40:56;96585.16;;;2.43;53.58
47556;BME280;33291;46.222;26.460;2023-02-03T08:43:21;96594.34;;;2.47;54.99
47556;BME280;33291;46.222;26.460;2023-02-03T08:45:47;96591.72;;;2.49;52.52
47556;BME280;33291;46.222;26.460;2023-02-03T08:48:12;96579.25;;;2.41;52.92
47556;BME280;33291;46.222;26.460;2023-02-03T08:50:41;96577.63;;;2.40;53.81
47556;BME280;33291;46.222;26.460;2023-02-03T08:53:08;96594.41;;;2.46;54.77
47556;BME280;33291;46.222;26.460;2023-02-03T08:55:37;96536.56;;;2.08;54.23
47556;BME280;33291;46.222;26.460;2023-02-03T08:58:03;96600.31;;;2.48;53.41
47556;BME280;33291;46.222;26.460;2023-02-03T09:00:28;96594.28;;;2.49;53.18
47556;BME280;33291;46.222;26.460;2023-02-03T09:02:54;96591.19;;;2.58;53.49
47556;BME280;33291;46.222;26.460;2023-02-03T09:05:19;96591.56;;;2.66;52.26
47556;BME280;33291;46.222;26.460;2023-02-03T09:07:45;96596.44;;;2.71;52.56
47556;BME280;33291;46.222;26.460;2023-02-03T09:10:10;96597.75;;;2.78;52.75
47556;BME280;33291;46.222;26.460;2023-02-03T09:12:36;96586.47;;;2.81;52.66
47556;BME280;33291;46.222;26.460;2023-02-03T09:15:01;96586.94;;;2.88;52.39
47556;BME280;33291;46.222;26.460;2023-02-03T09:17:27;96588.50;;;2.90;51.08
47556;BME280;33291;46.222;26.460;2023-02-03T09:19:52;96574.97;;;2.87;50.48
47556;BME280;33291;46.222;26.460;2023-02-03T09:22:18;96582.59;;;2.88;50.68
47556;BME280;33291;46.222;26.460;2023-02-03T09:24:43;96577.81;;;2.82;50.43
47556;BME280;33291;46.222;26.460;2023-02-03T09:27:09;96572.66;;;2.82;49.65
47556;BME280;33291;46.222;26.460;2023-02-03T09:29:35;96583.44;;;2.89;48.97
47556;BME280;33291;46.222;26.460;2023-02-03T09:32:00;96581.69;;;2.89;48.84
47556;BME280;33291;46.222;26.460;2023-02-03T09:34:31;96567.34;;;2.85;48.58
47556;BME280;33291;46.222;26.460;2023-02-03T09:36:56;96574.97;;;2.87;46.64
47556;BME280;33291;46.222;26.460;2023-02-03T09:39:22;96583.34;;;2.90;47.45
47556;BME280;33291;46.222;26.460;2023-02-03T09:41:55;96570.31;;;2.93;46.10
47556;BME280;33291;46.222;26.460;2023-02-03T09:47:10;96564.63;;;3.31;45.93
47556;BME280;33291;46.222;26.460;2023-02-03T09:49:44;96558.19;;;3.53;46.10
47556;BME280;33291;46.222;26.460;2023-02-03T09:52:41;96552.78;;;3.85;45.18
47556;BME280;33291;46.222;26.460;2023-02-03T09:57:49;96544.75;;;4.17;43.00
47556;BME280;33291;46.222;26.460;2023-02-03T10:00:22;96549.44;;;4.24;43.62
47556;BME280;33291;46.222;26.460;2023-02-03T10:17:10;96565.19;;;3.92;44.93
47556;BME280;33291;46.222;26.460;2023-02-03T10:20:32;96560.19;;;3.77;46.12
47556;BME280;33291;46.222;26.460;2023-02-03T10:22:50;96571.22;;;3.64;46.29
47556;BME280;33291;46.222;26.460;2023-02-03T10:25:34;96581.69;;;3.61;47.16
47556;BME280;33291;46.222;26.460;2023-02-03T10:28:15;96566.44;;;3.58;46.32
47556;BME280;33291;46.222;26.460;2023-02-03T10:30:45;96567.91;;;3.62;46.99
47556;BME280;33291;46.222;26.460;2023-02-03T10:33:14;96564.03;;;3.69;45.90
47556;BME280;33291;46.222;26.460;2023-02-03T10:35:57;96542.06;;;3.64;45.77
47556;BME280;33291;46.222;26.460;2023-02-03T10:41:17;96547.84;;;3.67;45.70
47556;BME280;33291;46.222;26.460;2023-02-03T10:43:43;96561.56;;;3.53;45.46
47556;BME280;33291;46.222;26.460;2023-02-03T10:46:13;96550.53;;;3.37;46.05
47556;BME280;33291;46.222;26.460;2023-02-03T10:48:39;96528.03;;;3.12;46.41
47556;BME280;33291;46.222;26.460;2023-02-03T10:51:14;96556.72;;;3.20;46.43
47556;BME280;33291;46.222;26.460;2023-02-03T10:53:43;96557.25;;;3.11;47.40
47556;BME280;33291;46.222;26.460;2023-02-03T10:56:15;96565.44;;;3.03;47.16
47556;BME280;33291;46.222;26.460;2023-02-03T10:58:50;96571.84;;;2.96;47.70
47556;BME280;33291;46.222;26.460;2023-02-03T11:01:20;96602.66;;;2.97;49.77
47556;BME280;33291;46.222;26.460;2023-02-03T11:04:00;96585.63;;;2.80;52.76
47556;BME280;33291;46.222;26.460;2023-02-03T11:06:28;96559.34;;;2.45;52.98
47556;BME280;33291;46.222;26.460;2023-02-03T11:08:55;96565.63;;;2.55;53.20
47556;BME280;33291;46.222;26.460;2023-02-03T11:11:31;96562.56;;;2.48;53.71
47556;BME280;33291;46.222;26.460;2023-02-03T11:16:24;96564.72;;;2.56;53.59
47556;BME280;33291;46.222;26.460;2023-02-03T11:21:21;96559.28;;;2.61;50.26
47556;BME280;33291;46.222;26.460;2023-02-03T11:27:13;96549.84;;;2.61;49.68
47556;BME280;33291;46.222;26.460;2023-02-03T11:29:46;96539.75;;;2.58;48.99
47556;BME280;33291;46.222;26.460;2023-02-03T11:34:39;96527.88;;;2.56;48.26
47556;BME280;33291;46.222;26.460;2023-02-03T11:37:46;96540.13;;;2.66;48.39
47556;BME280;33291;46.222;26.460;2023-02-03T11:42:58;96537.47;;;2.68;47.53
47556;BME280;33291;46.222;26.460;2023-02-03T11:51:16;96538.63;;;2.62;48.87
47556;BME280;33291;46.222;26.460;2023-02-03T12:10:58;96506.97;;;2.31;48.59
47556;BME280;33291;46.222;26.460;2023-02-03T12:21:40;96524.63;;;2.07;48.43
47556;BME280;33291;46.222;26.460;2023-02-03T12:24:11;96520.47;;;2.05;48.74
47556;BME280;33291;46.222;26.460;2023-02-03T12:29:48;96524.69;;;2.06;48.49
47556;BME280;33291;46.222;26.460;2023-02-03T12:34:53;96513.53;;;2.07;48.42
47556;BME280;33291;46.222;26.460;2023-02-03T12:37:49;96509.19;;;2.07;48.90
47556;BME280;33291;46.222;26.460;2023-02-03T12:40:23;96498.28;;;2.04;49.66
47556;BME280;33291;46.222;26.460;2023-02-03T12:42:55;96497.59;;;2.00;49.85
47556;BME280;33291;46.222;26.460;2023-02-03T12:45:28;96487.81;;;2.07;50.42
47556;BME280;33291;46.222;26.460;2023-02-03T12:48:15;96484.16;;;2.11;49.61
47556;BME280;33291;46.222;26.460;2023-02-03T12:50:47;96484.81;;;2.15;49.99
47556;BME280;33291;46.222;26.460;2023-02-03T12:53:18;96473.88;;;2.11;50.18
47556;BME280;33291;46.222;26.460;2023-02-03T12:56:21;96495.56;;;2.21;49.58
47556;BME280;33291;46.222;26.460;2023-02-03T12:59:01;96483.13;;;2.29;48.56
47556;BME280;33291;46.222;26.460;2023-02-03T13:01:44;96479.75;;;2.43;48.11
47556;BME280;33291;46.222;26.460;2023-02-03T13:04:22;96460.00;;;2.44;47.02
47556;BME280;33291;46.222;26.460;2023-02-03T13:07:14;96467.63;;;2.45;47.93
47556;BME280;33291;46.222;26.460;2023-02-03T13:10:27;96476.81;;;2.49;48.60
47556;BME280;33291;46.222;26.460;2023-02-03T13:12:57;96472.88;;;2.58;48.52
47556;BME280;33291;46.222;26.460;2023-02-03T13:15:39;96472.16;;;2.71;48.05
47556;BME280;33291;46.222;26.460;2023-02-03T13:18:30;96460.22;;;2.70;47.96
47556;BME280;33291;46.222;26.460;2023-02-03T13:20:57;96477.22;;;2.72;48.70
47556;BME280;33291;46.222;26.460;2023-02-03T13:23:23;96446.88;;;2.48;48.50
47556;BME280;33291;46.222;26.460;2023-02-03T13:26:08;96465.91;;;2.60;48.83
47556;BME280;33291;46.222;26.460;2023-02-03T13:31:27;96471.09;;;2.44;49.39
47556;BME280;33291;46.222;26.460;2023-02-03T13:34:19;96474.28;;;2.34;49.13
47556;BME280;33291;46.222;26.460;2023-02-03T13:41:50;96472.06;;;2.13;49.94
47556;BME280;33291;46.222;26.460;2023-02-03T13:44:26;96474.38;;;2.02;50.19
47556;BME280;33291;46.222;26.460;2023-02-03T13:46:55;96464.28;;;1.99;49.39
47556;BME280;33291;46.222;26.460;2023-02-03T13:49:34;96481.19;;;2.03;50.32
47556;BME280;33291;46.222;26.460;2023-02-03T13:52:01;96469.50;;;1.97;50.70
47556;BME280;33291;46.222;26.460;2023-02-03T13:54:31;96476.50;;;1.95;49.52
47556;BME280;33291;46.222;26.460;2023-02-03T13:57:05;96468.13;;;1.91;50.30
47556;BME280;33291;46.222;26.460;2023-02-03T13:59:43;96473.28;;;1.91;49.86
47556;BME280;33291;46.222;26.460;2023-02-03T14:07:30;96477.25;;;1.81;49.45
47556;BME280;33291;46.222;26.460;2023-02-03T14:22:50;96457.84;;;1.61;50.05
47556;BME280;33291;46.222;26.460;2023-02-03T14:25:18;96478.47;;;1.59;49.46
47556;BME280;33291;46.222;26.460;2023-02-03T14:27:44;96471.06;;;1.53;49.43
47556;BME280;33291;46.222;26.460;2023-02-03T14:30:12;96461.91;;;1.49;49.62
47556;BME280;33291;46.222;26.460;2023-02-03T14:32:58;96461.03;;;1.49;50.27
47556;BME280;33291;46.222;26.460;2023-02-03T14:35:33;96462.97;;;1.45;49.99
47556;BME280;33291;46.222;26.460;2023-02-03T14:38:09;96431.94;;;1.34;50.18
47556;BME280;33291;46.222;26.460;2023-02-03T14:48:50;96443.34;;;1.28;49.74
47556;BME280;33291;46.222;26.460;2023-02-03T15:04:32;96449.63;;;1.22;49.60
47556;BME280;33291;46.222;26.460;2023-02-03T15:06:57;96438.88;;;1.16;48.43
47556;BME280;33291;46.222;26.460;2023-02-03T15:09:39;96438.97;;;1.14;49.00
47556;BME280;33291;46.222;26.460;2023-02-03T15:12:24;96447.66;;;1.12;49.10
47556;BME280;33291;46.222;26.460;2023-02-03T15:14:50;96441.88;;;1.08;49.56
47556;BME280;33291;46.222;26.460;2023-02-03T15:17:21;96439.53;;;1.03;50.57
47556;BME280;33291;46.222;26.460;2023-02-03T15:19:47;96437.47;;;0.94;50.29
47556;BME280;33291;46.222;26.460;2023-02-03T15:22:25;96419.00;;;0.87;49.57
47556;BME280;33291;46.222;26.460;2023-02-03T15:24:52;96431.72;;;0.89;49.90
47556;BME280;33291;46.222;26.460;2023-02-03T15:27:26;96434.28;;;0.89;50.28
47556;BME280;33291;46.222;26.460;2023-02-03T15:29:53;96425.63;;;0.92;50.64
47556;BME280;33291;46.222;26.460;2023-02-03T15:34:53;96424.59;;;0.78;51.65
47556;BME280;33291;46.222;26.460;2023-02-03T15:37:26;96433.03;;;0.80;52.47
47556;BME280;33291;46.222;26.460;2023-02-03T15:40:03;96427.91;;;0.80;51.89